sensor_id;sensor_type;location;lat;lon;timestamp;temperature;humidity
792;DHT22;379;49.022;12.148;2023-04-06T00:02:21;-3.20;89.40
792;DHT22;379;49.022;12.148;2023-04-06T00:04:47;-3.20;90.20
792;DHT22;379;49.022;12.148;2023-04-06T00:07:14;-3.20;90.50
792;DHT22;379;49.022;12.148;2023-04-06T00:09:41;-3.20;90.70
792;DHT22;379;49.022;12.148;2023-04-06T00:12:08;-3.20;90.90
792;DHT22;379;49.022;12.148;2023-04-06T00:14:35;-3.20;91.30
792;DHT22;379;49.022;12.148;2023-04-06T00:17:02;-3.20;92.10
792;DHT22;379;49.022;12.148;2023-04-06T00:19:30;-3.10;92.10
792;DHT22;379;49.022;12.148;2023-04-06T00:21:57;-3.10;92.30
792;DHT22;379;49.022;12.148;2023-04-06T00:24:24;-3.10;92.40
792;DHT22;379;49.022;12.148;2023-04-06T00:26:51;-3.20;92.60
792;DHT22;379;49.022;12.148;2023-04-06T00:29:17;-3.20;92.70
792;DHT22;379;49.022;12.148;2023-04-06T00:31:45;-3.30;92.60
792;DHT22;379;49.022;12.148;2023-04-06T00:34:12;-3.30;92.70
792;DHT22;379;49.022;12.148;2023-04-06T00:36:41;-3.50;92.50
792;DHT22;379;49.022;12.148;2023-04-06T00:39:09;-3.70;92.50
792;DHT22;379;49.022;12.148;2023-04-06T00:41:36;-3.80;93.10
792;DHT22;379;49.022;12.148;2023-04-06T00:44:03;-3.70;93.90
792;DHT22;379;49.022;12.148;2023-04-06T00:46:30;-3.70;94.20
792;DHT22;379;49.022;12.148;2023-04-06T00:48:57;-3.60;94.60
792;DHT22;379;49.022;12.148;2023-04-06T00:51:24;-3.60;94.90
792;DHT22;379;49.022;12.148;2023-04-06T00:53:52;-3.60;94.90
792;DHT22;379;49.022;12.148;2023-04-06T00:56:19;-3.60;95.10
792;DHT22;379;49.022;12.148;2023-04-06T00:58:46;-3.60;95.50
792;DHT22;379;49.022;12.148;2023-04-06T01:01:13;-3.60;95.50
792;DHT22;379;49.022;12.148;2023-04-06T01:03:40;-3.60;95.50
792;DHT22;379;49.022;12.148;2023-04-06T01:06:09;-3.60;95.60
792;DHT22;379;49.022;12.148;2023-04-06T01:08:36;-3.70;95.50
792;DHT22;379;49.022;12.148;2023-04-06T01:11:04;-3.80;95.70
792;DHT22;379;49.022;12.148;2023-04-06T01:13:31;-3.90;95.90
792;DHT22;379;49.022;12.148;2023-04-06T01:15:58;-3.90;96.50
792;DHT22;379;49.022;12.148;2023-04-06T01:18:26;-3.90;96.90
792;DHT22;379;49.022;12.148;2023-04-06T01:20:53;-3.90;97.10
792;DHT22;379;49.022;12.148;2023-04-06T01:23:21;-4.00;97.20
792;DHT22;379;49.022;12.148;2023-04-06T01:25:48;-4.00;97.30
792;DHT22;379;49.022;12.148;2023-04-06T01:28:15;-4.10;97.20
792;DHT22;379;49.022;12.148;2023-04-06T01:30:42;-4.30;97.20
792;DHT22;379;49.022;12.148;2023-04-06T01:33:08;-4.30;97.90
792;DHT22;379;49.022;12.148;2023-04-06T01:35:35;-4.30;98.40
792;DHT22;379;49.022;12.148;2023-04-06T01:38:02;-4.30;99.10
792;DHT22;379;49.022;12.148;2023-04-06T01:40:31;-4.20;99.30
792;DHT22;379;49.022;12.148;2023-04-06T01:42:57;-4.20;99.70
792;DHT22;379;49.022;12.148;2023-04-06T01:45:24;-4.20;99.90
792;DHT22;379;49.022;12.148;2023-04-06T01:47:51;-4.20;99.90
792;DHT22;379;49.022;12.148;2023-04-06T01:50:18;-4.10;99.90
792;DHT22;379;49.022;12.148;2023-04-06T01:52:45;-4.10;99.90
792;DHT22;379;49.022;12.148;2023-04-06T01:55:12;-4.00;99.90
792;DHT22;379;49.022;12.148;2023-04-06T01:57:40;-3.90;99.90
792;DHT22;379;49.022;12.148;2023-04-06T02:00:08;-3.90;99.90
792;DHT22;379;49.022;12.148;2023-04-06T02:02:35;-3.80;99.90
792;DHT22;379;49.022;12.148;2023-04-06T02:05:02;-3.80;99.90
792;DHT22;379;49.022;12.148;2023-04-06T02:07:28;-3.70;99.90
792;DHT22;379;49.022;12.148;2023-04-06T02:09:55;-3.70;99.90
792;DHT22;379;49.022;12.148;2023-04-06T02:12:22;-3.70;99.90
792;DHT22;379;49.022;12.148;2023-04-06T02:14:50;-3.70;99.90
792;DHT22;379;49.022;12.148;2023-04-06T02:17:17;-3.70;99.90
792;DHT22;379;49.022;12.148;2023-04-06T02:19:44;-3.80;99.90
792;DHT22;379;49.022;12.148;2023-04-06T02:22:11;-3.90;99.90
792;DHT22;379;49.022;12.148;2023-04-06T02:24:38;-3.90;99.90
792;DHT22;379;49.022;12.148;2023-04-06T02:27:05;-3.90;99.90
792;DHT22;379;49.022;12.148;2023-04-06T02:29:32;-3.90;99.90
792;DHT22;379;49.022;12.148;2023-04-06T02:32:00;-3.90;99.90
792;DHT22;379;49.022;12.148;2023-04-06T02:34:27;-3.80;99.90
792;DHT22;379;49.022;12.148;2023-04-06T02:36:55;-3.60;99.90
792;DHT22;379;49.022;12.148;2023-04-06T02:39:22;-3.60;99.90
792;DHT22;379;49.022;12.148;2023-04-06T02:41:49;-3.50;99.90
792;DHT22;379;49.022;12.148;2023-04-06T02:44:16;-3.50;99.90
792;DHT22;379;49.022;12.148;2023-04-06T02:46:42;-3.60;99.90
792;DHT22;379;49.022;12.148;2023-04-06T02:49:11;-3.60;99.90
792;DHT22;379;49.022;12.148;2023-04-06T02:51:38;-3.60;99.90
792;DHT22;379;49.022;12.148;2023-04-06T02:54:04;-3.60;99.90
792;DHT22;379;49.022;12.148;2023-04-06T02:56:31;-3.60;99.90
792;DHT22;379;49.022;12.148;2023-04-06T02:58:58;-3.70;99.90
792;DHT22;379;49.022;12.148;2023-04-06T03:01:26;-3.70;99.90
792;DHT22;379;49.022;12.148;2023-04-06T03:03:53;-3.70;99.90
792;DHT22;379;49.022;12.148;2023-04-06T03:06:21;-3.70;99.90
792;DHT22;379;49.022;12.148;2023-04-06T03:08:48;-3.70;99.90
792;DHT22;379;49.022;12.148;2023-04-06T03:11:15;-3.70;99.90
792;DHT22;379;49.022;12.148;2023-04-06T03:13:41;-3.80;99.90
792;DHT22;379;49.022;12.148;2023-04-06T03:16:08;-3.80;99.90
792;DHT22;379;49.022;12.148;2023-04-06T03:18:35;-3.80;99.90
792;DHT22;379;49.022;12.148;2023-04-06T03:21:02;-3.80;99.90
792;DHT22;379;49.022;12.148;2023-04-06T03:23:30;-3.70;99.90
792;DHT22;379;49.022;12.148;2023-04-06T03:25:57;-3.70;99.90
792;DHT22;379;49.022;12.148;2023-04-06T03:28:24;-3.80;99.90
792;DHT22;379;49.022;12.148;2023-04-06T03:30:51;-3.80;99.90
792;DHT22;379;49.022;12.148;2023-04-06T03:33:17;-3.80;99.90
792;DHT22;379;49.022;12.148;2023-04-06T03:35:44;-3.80;99.90
792;DHT22;379;49.022;12.148;2023-04-06T03:38:11;-3.70;99.90
792;DHT22;379;49.022;12.148;2023-04-06T03:40:39;-3.70;99.90
792;DHT22;379;49.022;12.148;2023-04-06T03:43:06;-3.60;99.90
792;DHT22;379;49.022;12.148;2023-04-06T03:45:33;-3.60;99.90
792;DHT22;379;49.022;12.148;2023-04-06T03:48:00;-3.50;99.90
792;DHT22;379;49.022;12.148;2023-04-06T03:50:27;-3.60;99.90
792;DHT22;379;49.022;12.148;2023-04-06T03:52:54;-3.60;99.90
792;DHT22;379;49.022;12.148;2023-04-06T03:55:21;-3.50;99.90
792;DHT22;379;49.022;12.148;2023-04-06T03:57:49;-3.50;99.90
792;DHT22;379;49.022;12.148;2023-04-06T04:00:16;-3.40;99.90
792;DHT22;379;49.022;12.148;2023-04-06T04:02:42;-3.30;99.90
792;DHT22;379;49.022;12.148;2023-04-06T04:05:09;-3.20;99.90
792;DHT22;379;49.022;12.148;2023-04-06T04:07:36;-3.10;99.90
792;DHT22;379;49.022;12.148;2023-04-06T04:10:04;-3.10;99.90
792;DHT22;379;49.022;12.148;2023-04-06T04:12:30;-3.00;99.90
792;DHT22;379;49.022;12.148;2023-04-06T04:14:59;-3.00;99.90
792;DHT22;379;49.022;12.148;2023-04-06T04:17:25;-3.10;99.90
792;DHT22;379;49.022;12.148;2023-04-06T04:19:52;-3.10;99.90
792;DHT22;379;49.022;12.148;2023-04-06T04:22:19;-3.10;99.90
792;DHT22;379;49.022;12.148;2023-04-06T04:24:46;-3.10;99.90
792;DHT22;379;49.022;12.148;2023-04-06T04:27:13;-3.20;99.90
792;DHT22;379;49.022;12.148;2023-04-06T04:29:40;-3.20;99.90
792;DHT22;379;49.022;12.148;2023-04-06T04:32:10;-3.20;99.90
792;DHT22;379;49.022;12.148;2023-04-06T04:34:37;-3.20;99.90
792;DHT22;379;49.022;12.148;2023-04-06T04:37:05;-3.20;99.90
792;DHT22;379;49.022;12.148;2023-04-06T04:39:32;-3.10;99.90
792;DHT22;379;49.022;12.148;2023-04-06T04:41:59;-3.10;99.90
792;DHT22;379;49.022;12.148;2023-04-06T04:44:26;-3.10;99.90
792;DHT22;379;49.022;12.148;2023-04-06T04:46:53;-3.10;99.90
792;DHT22;379;49.022;12.148;2023-04-06T04:49:21;-3.10;99.90
792;DHT22;379;49.022;12.148;2023-04-06T04:51:48;-3.10;99.90
792;DHT22;379;49.022;12.148;2023-04-06T04:54:17;-3.20;99.90
792;DHT22;379;49.022;12.148;2023-04-06T04:56:44;-3.30;99.90
792;DHT22;379;49.022;12.148;2023-04-06T04:59:11;-3.30;99.90
792;DHT22;379;49.022;12.148;2023-04-06T05:01:38;-3.30;99.90
792;DHT22;379;49.022;12.148;2023-04-06T05:04:05;-3.30;99.90
792;DHT22;379;49.022;12.148;2023-04-06T05:06:33;-3.40;99.90
792;DHT22;379;49.022;12.148;2023-04-06T05:09:00;-3.40;99.90
792;DHT22;379;49.022;12.148;2023-04-06T05:11:27;-3.50;99.90
792;DHT22;379;49.022;12.148;2023-04-06T05:13:54;-3.40;99.90
792;DHT22;379;49.022;12.148;2023-04-06T05:16:21;-3.40;99.90
792;DHT22;379;49.022;12.148;2023-04-06T05:18:47;-3.50;99.90
792;DHT22;379;49.022;12.148;2023-04-06T05:21:14;-3.50;99.90
792;DHT22;379;49.022;12.148;2023-04-06T05:23:42;-3.60;99.90
792;DHT22;379;49.022;12.148;2023-04-06T05:26:09;-3.60;99.90
792;DHT22;379;49.022;12.148;2023-04-06T05:28:36;-3.50;99.90
792;DHT22;379;49.022;12.148;2023-04-06T05:31:03;-3.50;99.90
792;DHT22;379;49.022;12.148;2023-04-06T05:33:31;-3.40;99.90
792;DHT22;379;49.022;12.148;2023-04-06T05:35:57;-3.40;99.90
792;DHT22;379;49.022;12.148;2023-04-06T05:38:26;-3.30;99.90
792;DHT22;379;49.022;12.148;2023-04-06T05:40:54;-2.90;99.90
792;DHT22;379;49.022;12.148;2023-04-06T05:43:21;-2.50;99.90
792;DHT22;379;49.022;12.148;2023-04-06T05:45:48;-2.10;99.90
792;DHT22;379;49.022;12.148;2023-04-06T05:48:14;-1.50;99.90
792;DHT22;379;49.022;12.148;2023-04-06T05:50:41;-1.00;99.90
792;DHT22;379;49.022;12.148;2023-04-06T05:53:08;-0.50;99.90
792;DHT22;379;49.022;12.148;2023-04-06T05:55:35;0.20;99.90
792;DHT22;379;49.022;12.148;2023-04-06T05:58:03;0.90;99.90
792;DHT22;379;49.022;12.148;2023-04-06T06:00:30;1.60;99.90
792;DHT22;379;49.022;12.148;2023-04-06T06:02:57;2.10;97.30
792;DHT22;379;49.022;12.148;2023-04-06T06:05:24;2.60;94.10
792;DHT22;379;49.022;12.148;2023-04-06T06:07:50;3.00;91.00
792;DHT22;379;49.022;12.148;2023-04-06T06:10:17;3.20;87.10
792;DHT22;379;49.022;12.148;2023-04-06T06:12:44;3.50;86.00
792;DHT22;379;49.022;12.148;2023-04-06T06:15:13;3.70;84.10
792;DHT22;379;49.022;12.148;2023-04-06T06:17:39;4.00;82.50
792;DHT22;379;49.022;12.148;2023-04-06T06:20:08;4.20;81.60
792;DHT22;379;49.022;12.148;2023-04-06T06:22:35;4.40;79.10
792;DHT22;379;49.022;12.148;2023-04-06T06:25:02;4.70;78.60
792;DHT22;379;49.022;12.148;2023-04-06T06:27:28;5.00;75.30
792;DHT22;379;49.022;12.148;2023-04-06T06:29:55;5.20;73.20
792;DHT22;379;49.022;12.148;2023-04-06T06:32:23;5.40;71.20
792;DHT22;379;49.022;12.148;2023-04-06T06:34:50;5.50;69.70
792;DHT22;379;49.022;12.148;2023-04-06T06:37:17;5.50;68.70
792;DHT22;379;49.022;12.148;2023-04-06T06:39:44;5.60;68.20
792;DHT22;379;49.022;12.148;2023-04-06T06:42:11;5.60;66.60
792;DHT22;379;49.022;12.148;2023-04-06T06:44:38;5.70;66.80
792;DHT22;379;49.022;12.148;2023-04-06T06:47:04;5.80;66.00
792;DHT22;379;49.022;12.148;2023-04-06T06:49:33;6.00;65.80
792;DHT22;379;49.022;12.148;2023-04-06T06:51:59;6.20;66.50
792;DHT22;379;49.022;12.148;2023-04-06T06:54:26;6.50;65.50
792;DHT22;379;49.022;12.148;2023-04-06T06:56:53;6.70;64.70
792;DHT22;379;49.022;12.148;2023-04-06T06:59:20;6.80;63.80
792;DHT22;379;49.022;12.148;2023-04-06T07:01:48;6.90;63.20
792;DHT22;379;49.022;12.148;2023-04-06T07:04:14;7.00;60.90
792;DHT22;379;49.022;12.148;2023-04-06T07:06:43;7.00;60.50
792;DHT22;379;49.022;12.148;2023-04-06T07:09:09;7.00;60.30
792;DHT22;379;49.022;12.148;2023-04-06T07:11:36;6.90;60.70
792;DHT22;379;49.022;12.148;2023-04-06T07:14:03;6.90;60.60
792;DHT22;379;49.022;12.148;2023-04-06T07:16:30;6.90;60.80
792;DHT22;379;49.022;12.148;2023-04-06T07:18:57;6.80;60.50
792;DHT22;379;49.022;12.148;2023-04-06T07:21:24;6.60;60.50
792;DHT22;379;49.022;12.148;2023-04-06T07:23:53;6.40;59.70
792;DHT22;379;49.022;12.148;2023-04-06T07:26:20;6.30;59.20
792;DHT22;379;49.022;12.148;2023-04-06T07:28:47;6.30;60.80
792;DHT22;379;49.022;12.148;2023-04-06T07:31:14;6.30;60.30
792;DHT22;379;49.022;12.148;2023-04-06T07:33:40;6.30;59.70
792;DHT22;379;49.022;12.148;2023-04-06T07:36:07;6.20;59.40
792;DHT22;379;49.022;12.148;2023-04-06T07:38:34;6.00;60.00
792;DHT22;379;49.022;12.148;2023-04-06T07:41:02;5.90;60.80
792;DHT22;379;49.022;12.148;2023-04-06T07:43:30;5.80;61.40
792;DHT22;379;49.022;12.148;2023-04-06T07:45:57;5.70;62.00
792;DHT22;379;49.022;12.148;2023-04-06T07:48:25;5.70;62.40
792;DHT22;379;49.022;12.148;2023-04-06T07:50:52;5.70;61.90
792;DHT22;379;49.022;12.148;2023-04-06T07:53:18;5.70;60.60
792;DHT22;379;49.022;12.148;2023-04-06T07:55:45;5.70;60.20
792;DHT22;379;49.022;12.148;2023-04-06T07:58:13;5.70;59.80
792;DHT22;379;49.022;12.148;2023-04-06T08:00:40;5.70;59.30
792;DHT22;379;49.022;12.148;2023-04-06T08:03:07;5.60;59.90
792;DHT22;379;49.022;12.148;2023-04-06T08:05:34;5.70;60.60
792;DHT22;379;49.022;12.148;2023-04-06T08:08:01;5.60;61.00
792;DHT22;379;49.022;12.148;2023-04-06T08:10:28;5.70;59.80
792;DHT22;379;49.022;12.148;2023-04-06T08:12:55;5.70;59.90
792;DHT22;379;49.022;12.148;2023-04-06T08:15:23;5.80;59.70
792;DHT22;379;49.022;12.148;2023-04-06T08:17:50;5.80;60.00
792;DHT22;379;49.022;12.148;2023-04-06T08:20:17;5.90;60.00
792;DHT22;379;49.022;12.148;2023-04-06T08:22:44;6.00;60.30
792;DHT22;379;49.022;12.148;2023-04-06T08:25:11;6.00;60.80
792;DHT22;379;49.022;12.148;2023-04-06T08:27:38;6.00;60.50
792;DHT22;379;49.022;12.148;2023-04-06T08:30:05;6.10;61.00
792;DHT22;379;49.022;12.148;2023-04-06T08:32:34;6.10;60.00
792;DHT22;379;49.022;12.148;2023-04-06T08:35:01;6.10;60.60
792;DHT22;379;49.022;12.148;2023-04-06T08:37:28;6.20;60.80
792;DHT22;379;49.022;12.148;2023-04-06T08:39:55;6.20;60.20
792;DHT22;379;49.022;12.148;2023-04-06T08:42:25;6.30;59.90
792;DHT22;379;49.022;12.148;2023-04-06T08:44:52;6.30;59.70
792;DHT22;379;49.022;12.148;2023-04-06T08:47:20;6.30;60.20
792;DHT22;379;49.022;12.148;2023-04-06T08:49:49;6.30;60.60
792;DHT22;379;49.022;12.148;2023-04-06T08:52:18;6.40;61.10
792;DHT22;379;49.022;12.148;2023-04-06T08:54:45;6.40;60.80
792;DHT22;379;49.022;12.148;2023-04-06T08:57:12;6.50;60.70
792;DHT22;379;49.022;12.148;2023-04-06T08:59:39;6.60;60.90
792;DHT22;379;49.022;12.148;2023-04-06T09:02:09;6.70;61.20
792;DHT22;379;49.022;12.148;2023-04-06T09:04:43;6.70;60.50
792;DHT22;379;49.022;12.148;2023-04-06T09:07:12;6.70;60.00
792;DHT22;379;49.022;12.148;2023-04-06T09:09:39;6.70;57.00
792;DHT22;379;49.022;12.148;2023-04-06T09:12:08;6.70;57.50
792;DHT22;379;49.022;12.148;2023-04-06T09:14:38;6.70;58.90
792;DHT22;379;49.022;12.148;2023-04-06T09:17:06;6.80;58.40
792;DHT22;379;49.022;12.148;2023-04-06T09:19:33;6.80;58.40
792;DHT22;379;49.022;12.148;2023-04-06T09:22:03;6.90;58.70
792;DHT22;379;49.022;12.148;2023-04-06T09:24:42;7.00;58.40
792;DHT22;379;49.022;12.148;2023-04-06T09:27:09;7.00;57.80
792;DHT22;379;49.022;12.148;2023-04-06T09:29:36;7.10;55.80
792;DHT22;379;49.022;12.148;2023-04-06T09:32:04;7.20;55.40
792;DHT22;379;49.022;12.148;2023-04-06T09:34:31;7.30;55.80
792;DHT22;379;49.022;12.148;2023-04-06T09:36:58;7.40;56.50
792;DHT22;379;49.022;12.148;2023-04-06T09:39:25;7.50;56.30
792;DHT22;379;49.022;12.148;2023-04-06T09:41:54;7.50;55.80
792;DHT22;379;49.022;12.148;2023-04-06T09:44:21;7.60;55.10
792;DHT22;379;49.022;12.148;2023-04-06T09:46:50;7.60;54.40
792;DHT22;379;49.022;12.148;2023-04-06T09:49:19;7.80;52.50
792;DHT22;379;49.022;12.148;2023-04-06T09:51:48;7.70;51.10
792;DHT22;379;49.022;12.148;2023-04-06T09:54:22;7.70;50.90
792;DHT22;379;49.022;12.148;2023-04-06T09:56:54;7.70;51.00
792;DHT22;379;49.022;12.148;2023-04-06T09:59:28;7.70;51.30
792;DHT22;379;49.022;12.148;2023-04-06T10:01:59;7.80;49.80
792;DHT22;379;49.022;12.148;2023-04-06T10:04:36;7.80;49.20
792;DHT22;379;49.022;12.148;2023-04-06T10:07:06;7.70;48.80
792;DHT22;379;49.022;12.148;2023-04-06T10:09:35;7.70;48.10
792;DHT22;379;49.022;12.148;2023-04-06T10:12:06;7.80;47.00
792;DHT22;379;49.022;12.148;2023-04-06T10:14:33;7.90;47.00
792;DHT22;379;49.022;12.148;2023-04-06T10:17:02;8.00;47.20
792;DHT22;379;49.022;12.148;2023-04-06T10:19:34;8.10;47.60
792;DHT22;379;49.022;12.148;2023-04-06T10:22:03;8.20;48.10
792;DHT22;379;49.022;12.148;2023-04-06T10:24:32;8.10;46.70
792;DHT22;379;49.022;12.148;2023-04-06T10:27:00;8.10;45.70
792;DHT22;379;49.022;12.148;2023-04-06T10:29:42;8.10;46.30
792;DHT22;379;49.022;12.148;2023-04-06T10:32:09;8.10;48.70
792;DHT22;379;49.022;12.148;2023-04-06T10:34:36;8.20;49.10
792;DHT22;379;49.022;12.148;2023-04-06T10:37:12;8.30;48.70
792;DHT22;379;49.022;12.148;2023-04-06T10:39:46;8.40;48.80
792;DHT22;379;49.022;12.148;2023-04-06T10:42:13;8.40;47.10
792;DHT22;379;49.022;12.148;2023-04-06T10:44:49;8.40;45.20
792;DHT22;379;49.022;12.148;2023-04-06T10:47:17;8.40;46.20
792;DHT22;379;49.022;12.148;2023-04-06T10:49:44;8.30;47.10
792;DHT22;379;49.022;12.148;2023-04-06T10:52:11;8.40;48.00
792;DHT22;379;49.022;12.148;2023-04-06T10:54:41;8.50;48.30
792;DHT22;379;49.022;12.148;2023-04-06T10:57:09;8.60;48.40
792;DHT22;379;49.022;12.148;2023-04-06T10:59:36;8.70;47.00
792;DHT22;379;49.022;12.148;2023-04-06T11:02:05;8.70;46.10
792;DHT22;379;49.022;12.148;2023-04-06T11:04:31;8.80;44.80
792;DHT22;379;49.022;12.148;2023-04-06T11:06:58;8.80;45.80
792;DHT22;379;49.022;12.148;2023-04-06T11:09:26;8.90;46.00
792;DHT22;379;49.022;12.148;2023-04-06T11:11:53;8.80;43.40
792;DHT22;379;49.022;12.148;2023-04-06T11:14:20;8.80;43.50
792;DHT22;379;49.022;12.148;2023-04-06T11:16:48;8.80;43.60
792;DHT22;379;49.022;12.148;2023-04-06T11:19:17;8.80;43.70
792;DHT22;379;49.022;12.148;2023-04-06T11:21:45;8.70;42.80
792;DHT22;379;49.022;12.148;2023-04-06T11:24:15;8.60;44.40
792;DHT22;379;49.022;12.148;2023-04-06T11:26:43;8.80;46.90
792;DHT22;379;49.022;12.148;2023-04-06T11:29:11;9.00;47.30
792;DHT22;379;49.022;12.148;2023-04-06T11:31:40;9.20;44.80
792;DHT22;379;49.022;12.148;2023-04-06T11:34:11;9.30;44.60
792;DHT22;379;49.022;12.148;2023-04-06T11:36:44;9.30;46.00
792;DHT22;379;49.022;12.148;2023-04-06T11:39:12;9.30;45.50
792;DHT22;379;49.022;12.148;2023-04-06T11:41:39;9.40;44.80
792;DHT22;379;49.022;12.148;2023-04-06T11:44:06;9.50;44.50
792;DHT22;379;49.022;12.148;2023-04-06T11:46:33;9.40;44.20
792;DHT22;379;49.022;12.148;2023-04-06T11:49:00;9.40;43.90
792;DHT22;379;49.022;12.148;2023-04-06T11:51:27;9.30;44.50
792;DHT22;379;49.022;12.148;2023-04-06T11:53:56;9.40;45.30
792;DHT22;379;49.022;12.148;2023-04-06T11:56:26;9.30;43.40
792;DHT22;379;49.022;12.148;2023-04-06T11:58:57;9.20;43.10
792;DHT22;379;49.022;12.148;2023-04-06T12:01:25;9.20;44.00
792;DHT22;379;49.022;12.148;2023-04-06T12:03:53;9.30;46.40
792;DHT22;379;49.022;12.148;2023-04-06T12:06:20;9.40;44.00
792;DHT22;379;49.022;12.148;2023-04-06T12:08:46;9.30;43.60
792;DHT22;379;49.022;12.148;2023-04-06T12:11:15;9.20;44.50
792;DHT22;379;49.022;12.148;2023-04-06T12:13:41;9.30;45.80
792;DHT22;379;49.022;12.148;2023-04-06T12:16:08;9.40;45.70
792;DHT22;379;49.022;12.148;2023-04-06T12:18:35;9.50;46.60
792;DHT22;379;49.022;12.148;2023-04-06T12:21:02;9.60;46.00
792;DHT22;379;49.022;12.148;2023-04-06T12:23:30;9.60;44.70
792;DHT22;379;49.022;12.148;2023-04-06T12:25:57;9.60;43.30
792;DHT22;379;49.022;12.148;2023-04-06T12:28:25;9.60;43.90
792;DHT22;379;49.022;12.148;2023-04-06T12:30:53;9.60;45.20
792;DHT22;379;49.022;12.148;2023-04-06T12:33:20;9.70;45.90
792;DHT22;379;49.022;12.148;2023-04-06T12:35:47;9.80;46.00
792;DHT22;379;49.022;12.148;2023-04-06T12:38:15;9.90;46.20
792;DHT22;379;49.022;12.148;2023-04-06T12:40:42;10.00;45.20
792;DHT22;379;49.022;12.148;2023-04-06T12:43:09;10.00;44.70
792;DHT22;379;49.022;12.148;2023-04-06T12:45:37;10.10;45.20
792;DHT22;379;49.022;12.148;2023-04-06T12:48:04;10.10;44.80
792;DHT22;379;49.022;12.148;2023-04-06T12:50:31;10.20;42.80
792;DHT22;379;49.022;12.148;2023-04-06T12:52:58;10.20;42.40
792;DHT22;379;49.022;12.148;2023-04-06T12:55:24;10.20;43.00
792;DHT22;379;49.022;12.148;2023-04-06T12:57:52;10.20;43.60
792;DHT22;379;49.022;12.148;2023-04-06T13:00:20;10.10;42.80
792;DHT22;379;49.022;12.148;2023-04-06T13:02:48;10.00;41.40
792;DHT22;379;49.022;12.148;2023-04-06T13:05:15;10.10;42.60
792;DHT22;379;49.022;12.148;2023-04-06T13:07:44;10.20;43.40
792;DHT22;379;49.022;12.148;2023-04-06T13:10:12;10.40;43.30
792;DHT22;379;49.022;12.148;2023-04-06T13:12:39;10.50;43.00
792;DHT22;379;49.022;12.148;2023-04-06T13:15:06;10.50;43.00
792;DHT22;379;49.022;12.148;2023-04-06T13:17:33;10.40;40.30
792;DHT22;379;49.022;12.148;2023-04-06T13:20:01;10.20;39.60
792;DHT22;379;49.022;12.148;2023-04-06T13:22:29;10.00;40.50
792;DHT22;379;49.022;12.148;2023-04-06T13:24:56;10.00;41.40
792;DHT22;379;49.022;12.148;2023-04-06T13:27:22;10.00;41.40
792;DHT22;379;49.022;12.148;2023-04-06T13:29:49;10.00;42.10
792;DHT22;379;49.022;12.148;2023-04-06T13:32:16;10.00;42.00
792;DHT22;379;49.022;12.148;2023-04-06T13:34:43;9.90;41.90
792;DHT22;379;49.022;12.148;2023-04-06T13:37:12;9.90;42.30
792;DHT22;379;49.022;12.148;2023-04-06T13:39:39;10.00;42.60
792;DHT22;379;49.022;12.148;2023-04-06T13:42:06;10.00;41.50
792;DHT22;379;49.022;12.148;2023-04-06T13:44:33;10.00;41.70
792;DHT22;379;49.022;12.148;2023-04-06T13:47:00;10.00;42.30
792;DHT22;379;49.022;12.148;2023-04-06T13:49:26;10.00;42.80
792;DHT22;379;49.022;12.148;2023-04-06T13:51:53;10.00;43.10
792;DHT22;379;49.022;12.148;2023-04-06T13:54:21;10.00;43.30
792;DHT22;379;49.022;12.148;2023-04-06T13:56:48;10.00;42.70
792;DHT22;379;49.022;12.148;2023-04-06T13:59:15;10.10;41.80
792;DHT22;379;49.022;12.148;2023-04-06T14:01:41;10.10;41.10
792;DHT22;379;49.022;12.148;2023-04-06T14:04:08;10.10;39.50
792;DHT22;379;49.022;12.148;2023-04-06T14:06:36;10.00;39.70
792;DHT22;379;49.022;12.148;2023-04-06T14:09:03;9.90;40.70
792;DHT22;379;49.022;12.148;2023-04-06T14:11:31;9.90;40.60
792;DHT22;379;49.022;12.148;2023-04-06T14:13:59;9.80;40.30
792;DHT22;379;49.022;12.148;2023-04-06T14:16:26;9.80;40.70
792;DHT22;379;49.022;12.148;2023-04-06T14:18:52;9.70;40.60
792;DHT22;379;49.022;12.148;2023-04-06T14:21:20;9.70;41.20
792;DHT22;379;49.022;12.148;2023-04-06T14:23:46;9.80;42.10
792;DHT22;379;49.022;12.148;2023-04-06T14:26:13;9.90;41.20
792;DHT22;379;49.022;12.148;2023-04-06T14:28:42;9.90;41.70
792;DHT22;379;49.022;12.148;2023-04-06T14:31:13;10.00;41.80
792;DHT22;379;49.022;12.148;2023-04-06T14:33:41;10.00;42.10
792;DHT22;379;49.022;12.148;2023-04-06T14:36:08;10.00;42.30
792;DHT22;379;49.022;12.148;2023-04-06T14:38:35;9.90;43.50
792;DHT22;379;49.022;12.148;2023-04-06T14:41:02;9.90;43.50
792;DHT22;379;49.022;12.148;2023-04-06T14:43:28;9.90;43.20
792;DHT22;379;49.022;12.148;2023-04-06T14:46:00;9.90;42.60
792;DHT22;379;49.022;12.148;2023-04-06T14:48:27;9.90;41.50
792;DHT22;379;49.022;12.148;2023-04-06T14:50:55;9.80;41.10
792;DHT22;379;49.022;12.148;2023-04-06T14:53:22;9.90;41.20
792;DHT22;379;49.022;12.148;2023-04-06T14:55:49;9.90;40.60
792;DHT22;379;49.022;12.148;2023-04-06T14:58:17;10.00;40.10
792;DHT22;379;49.022;12.148;2023-04-06T15:00:43;10.00;40.90
792;DHT22;379;49.022;12.148;2023-04-06T15:03:12;10.00;40.40
792;DHT22;379;49.022;12.148;2023-04-06T15:05:39;10.10;40.50
792;DHT22;379;49.022;12.148;2023-04-06T15:08:06;10.10;40.70
792;DHT22;379;49.022;12.148;2023-04-06T15:10:34;10.10;39.40
792;DHT22;379;49.022;12.148;2023-04-06T15:13:02;10.00;39.40
792;DHT22;379;49.022;12.148;2023-04-06T15:15:28;10.00;40.90
792;DHT22;379;49.022;12.148;2023-04-06T15:17:55;9.90;43.20
792;DHT22;379;49.022;12.148;2023-04-06T15:20:23;9.90;43.40
792;DHT22;379;49.022;12.148;2023-04-06T15:22:50;10.00;42.70
792;DHT22;379;49.022;12.148;2023-04-06T15:25:17;9.90;42.40
792;DHT22;379;49.022;12.148;2023-04-06T15:27:43;9.90;41.50
792;DHT22;379;49.022;12.148;2023-04-06T15:30:11;9.80;41.50
792;DHT22;379;49.022;12.148;2023-04-06T15:32:38;9.80;41.50
792;DHT22;379;49.022;12.148;2023-04-06T15:35:11;9.80;41.20
792;DHT22;379;49.022;12.148;2023-04-06T15:37:39;9.70;41.60
792;DHT22;379;49.022;12.148;2023-04-06T15:40:08;9.70;41.60
792;DHT22;379;49.022;12.148;2023-04-06T15:42:38;9.60;41.70
792;DHT22;379;49.022;12.148;2023-04-06T15:45:08;9.50;42.10
792;DHT22;379;49.022;12.148;2023-04-06T15:47:34;9.50;42.30
792;DHT22;379;49.022;12.148;2023-04-06T15:50:01;9.50;43.00
792;DHT22;379;49.022;12.148;2023-04-06T15:52:28;9.50;42.90
792;DHT22;379;49.022;12.148;2023-04-06T15:54:56;9.50;43.30
792;DHT22;379;49.022;12.148;2023-04-06T15:57:23;9.40;43.80
792;DHT22;379;49.022;12.148;2023-04-06T15:59:50;9.40;44.30
792;DHT22;379;49.022;12.148;2023-04-06T16:02:16;9.30;44.40
792;DHT22;379;49.022;12.148;2023-04-06T16:04:44;9.30;44.10
792;DHT22;379;49.022;12.148;2023-04-06T16:07:11;9.20;43.40
792;DHT22;379;49.022;12.148;2023-04-06T16:09:37;9.20;43.40
792;DHT22;379;49.022;12.148;2023-04-06T16:12:06;9.20;43.20
792;DHT22;379;49.022;12.148;2023-04-06T16:14:34;9.20;43.50
792;DHT22;379;49.022;12.148;2023-04-06T16:17:00;9.20;43.60
792;DHT22;379;49.022;12.148;2023-04-06T16:19:27;9.10;43.80
792;DHT22;379;49.022;12.148;2023-04-06T16:21:54;9.00;44.40
792;DHT22;379;49.022;12.148;2023-04-06T16:24:22;9.00;44.60
792;DHT22;379;49.022;12.148;2023-04-06T16:26:48;9.10;44.60
792;DHT22;379;49.022;12.148;2023-04-06T16:29:18;9.00;44.60